createdAt,value
2023-09-06T00:01:16.561Z,5.47
2023-09-06T00:10:43.334Z,6.10
2023-09-06T00:26:28.324Z,5.67
2023-09-06T00:29:23.250Z,5.40
2023-09-06T00:35:15.052Z,5.60
2023-09-06T00:56:04.165Z,6.50
2023-09-06T01:18:36.015Z,5.53
2023-09-06T01:24:36.694Z,5.70
2023-09-06T01:27:37.207Z,6.03
2023-09-06T01:31:17.881Z,5.60
2023-09-06T01:40:55.088Z,6.00
2023-09-06T01:43:33.332Z,6.40
2023-09-06T01:46:11.308Z,6.43
2023-09-06T01:49:12.543Z,6.43
2023-09-06T01:52:04.736Z,6.00
2023-09-06T01:54:47.565Z,6.00
2023-09-06T01:58:06.845Z,6.20
2023-09-06T02:00:44.106Z,6.60
2023-09-06T02:03:44.397Z,6.40
2023-09-06T02:06:13.920Z,6.90
2023-09-06T02:08:51.969Z,6.70
2023-09-06T02:12:14.092Z,6.50
2023-09-06T02:15:13.824Z,6.40
2023-09-06T02:18:02.206Z,6.70
2023-09-06T02:20:52.671Z,6.40
2023-09-06T02:23:38.761Z,6.43
2023-09-06T02:26:32.487Z,6.30
2023-09-06T02:29:06.630Z,6.13
2023-09-06T02:31:35.846Z,6.43
2023-09-06T02:34:19.118Z,6.70
2023-09-06T02:36:57.457Z,6.43
2023-09-06T02:39:55.100Z,6.20
2023-09-06T02:42:54.467Z,6.37
2023-09-06T02:45:56.709Z,6.23
2023-09-06T02:48:49.139Z,6.43
2023-09-06T02:57:54.062Z,6.10
2023-09-06T03:00:35.069Z,6.30
2023-09-06T03:03:29.386Z,6.33
2023-09-06T03:06:44.669Z,6.80
2023-09-06T03:12:22.868Z,5.67
2023-09-06T03:15:12.545Z,6.13
2023-09-06T03:18:04.423Z,6.00
2023-09-06T03:20:46.382Z,6.63
2023-09-06T03:24:05.439Z,5.93
2023-09-06T03:27:01.198Z,6.07
2023-09-06T03:30:05.515Z,6.37
2023-09-06T03:39:45.898Z,7.00
2023-09-06T03:42:20.534Z,6.87
2023-09-06T03:45:27.494Z,7.17
2023-09-06T03:51:33.397Z,7.17
2023-09-06T03:54:10.413Z,6.80
2023-09-06T03:57:09.784Z,7.00
2023-09-06T03:59:56.964Z,6.60
2023-09-06T04:02:34.768Z,7.03
2023-09-06T04:05:04.049Z,6.90
2023-09-06T04:08:00.729Z,7.13
2023-09-06T04:10:47.234Z,7.13
2023-09-06T04:14:00.805Z,6.63
2023-09-06T04:16:52.223Z,7.53
2023-09-06T04:19:40.651Z,7.07
2023-09-06T04:22:21.733Z,6.97
2023-09-06T04:25:11.532Z,7.07
2023-09-06T04:28:03.684Z,7.13
2023-09-06T04:30:48.515Z,7.07
2023-09-06T04:33:28.304Z,6.77
2023-09-06T04:36:22.646Z,6.77
2023-09-06T04:38:52.184Z,7.00
2023-09-06T04:41:23.294Z,6.67
2023-09-06T04:43:55.459Z,6.70
2023-09-06T04:46:34.577Z,6.83
2023-09-06T04:49:17.250Z,6.10
2023-09-06T04:52:28.023Z,5.93
2023-09-06T04:57:52.485Z,5.63
2023-09-06T05:00:26.178Z,5.20
2023-09-06T05:02:59.962Z,5.27
2023-09-06T05:05:49.111Z,5.03
2023-09-06T05:08:21.598Z,4.60
2023-09-06T05:11:05.242Z,5.13
2023-09-06T05:13:37.199Z,5.07
2023-09-06T05:16:09.149Z,4.40
2023-09-06T05:18:38.303Z,4.93
2023-09-06T05:21:08.380Z,4.97
2023-09-06T05:23:43.873Z,5.25
2023-09-06T05:26:21.093Z,4.90
2023-09-06T05:28:56.591Z,4.70
2023-09-06T05:31:51.442Z,4.60
2023-09-06T05:34:30.885Z,4.70
2023-09-06T05:37:07.923Z,4.43
2023-09-06T05:39:52.956Z,5.03
2023-09-06T05:42:46.397Z,5.20
2023-09-06T05:45:49.519Z,4.82
2023-09-06T05:48:38.685Z,5.35
2023-09-06T05:51:13.911Z,5.35
2023-09-06T05:53:43.235Z,5.18
2023-09-06T05:56:13.493Z,4.80
2023-09-06T05:58:56.062Z,4.93
2023-09-06T06:01:45.219Z,4.50
2023-09-06T06:04:24.439Z,4.82
2023-09-06T06:07:10.062Z,5.10
2023-09-06T06:09:54.425Z,4.95
2023-09-06T06:12:47.991Z,5.07
2023-09-06T06:15:17.041Z,5.18
2023-09-06T06:18:14.472Z,5.10
2023-09-06T06:20:56.006Z,4.55
2023-09-06T06:23:25.771Z,4.75
2023-09-06T06:28:57.391Z,4.75
2023-09-06T06:31:47.079Z,4.70
2023-09-06T06:34:39.708Z,4.65
2023-09-06T06:40:21.248Z,4.85
2023-09-06T06:43:02.315Z,5.32
2023-09-06T06:46:07.419Z,4.53
2023-09-06T06:48:48.601Z,4.55
2023-09-06T06:51:20.840Z,4.40
2023-09-06T06:53:56.648Z,4.50
2023-09-06T06:56:25.659Z,4.88
2023-09-06T06:58:56.052Z,4.53
2023-09-06T07:01:28.670Z,4.50
2023-09-06T07:04:11.039Z,4.60
2023-09-06T07:06:45.331Z,4.45
2023-09-06T07:09:14.874Z,4.88
2023-09-06T07:11:43.220Z,4.63
2023-09-06T07:14:19.677Z,4.45
2023-09-06T07:16:50.995Z,4.70
2023-09-06T07:19:30.161Z,4.93
2023-09-06T07:22:04.291Z,4.47
2023-09-06T07:24:43.373Z,3.72
2023-09-06T07:27:20.891Z,4.32
2023-09-06T07:29:51.496Z,4.72
2023-09-06T07:32:25.274Z,4.72
2023-09-06T07:34:53.832Z,4.35
2023-09-06T07:37:23.550Z,4.30
2023-09-06T07:39:55.242Z,4.75
2023-09-06T07:42:26.937Z,4.85
2023-09-06T07:44:59.500Z,4.47
2023-09-06T07:47:29.865Z,4.40
2023-09-06T07:50:00.287Z,4.82
2023-09-06T07:52:30.115Z,4.43
2023-09-06T07:54:57.754Z,4.45
2023-09-06T07:57:26.962Z,4.30
2023-09-06T07:59:56.418Z,4.20
2023-09-06T08:02:23.786Z,4.35
2023-09-06T08:04:54.107Z,4.18
2023-09-06T08:07:25.224Z,4.45
2023-09-06T08:10:02.979Z,5.07
2023-09-06T08:12:33.139Z,4.68
2023-09-06T08:15:02.157Z,4.35
2023-09-06T08:17:31.526Z,4.22
2023-09-06T08:20:00.592Z,4.07
2023-09-06T08:22:39.216Z,4.38
2023-09-06T08:25:16.926Z,4.85
2023-09-06T08:27:46.926Z,5.07
2023-09-06T08:30:17.988Z,4.47
2023-09-06T08:32:56.000Z,4.32
2023-09-06T08:35:32.083Z,4.78
2023-09-06T08:38:01.900Z,4.60
2023-09-06T08:40:30.867Z,4.13
2023-09-06T08:43:21.298Z,4.07
2023-09-06T08:45:59.569Z,3.95
2023-09-06T08:48:28.968Z,3.95
2023-09-06T08:51:04.397Z,4.00
2023-09-06T08:53:35.344Z,4.30
2023-09-06T08:56:13.741Z,3.90
2023-09-06T08:58:45.170Z,4.30
2023-09-06T09:01:21.716Z,4.30
2023-09-06T09:03:51.509Z,4.10
2023-09-06T09:06:21.931Z,4.00
2023-09-06T09:08:51.860Z,4.10
2023-09-06T09:11:21.275Z,3.33
2023-09-06T09:13:54.263Z,3.10
2023-09-06T09:16:22.248Z,2.72
2023-09-06T09:18:52.066Z,3.53
2023-09-06T09:21:22.932Z,4.10
2023-09-06T09:23:59.210Z,4.13
2023-09-06T09:26:31.590Z,4.32
2023-09-06T09:29:08.320Z,4.45
2023-09-06T09:31:38.540Z,4.63
2023-09-06T09:34:06.870Z,3.83
2023-09-06T09:36:39.032Z,4.60
2023-09-06T09:39:14.962Z,4.35
2023-09-06T09:41:58.461Z,4.78
2023-09-06T09:44:30.192Z,3.55
2023-09-06T09:46:59.161Z,3.47
2023-09-06T09:49:34.299Z,3.75
2023-09-06T09:52:04.757Z,3.65
2023-09-06T09:54:37.018Z,3.85
2023-09-06T09:57:25.032Z,4.00
2023-09-06T10:00:11.617Z,3.30
2023-09-06T10:02:42.977Z,4.10
2023-09-06T10:05:30.065Z,4.00
2023-09-06T10:07:59.768Z,4.13
2023-09-06T10:10:35.437Z,3.90
2023-09-06T10:13:11.592Z,3.58
2023-09-06T10:15:41.732Z,4.00
2023-09-06T10:18:12.879Z,3.97
2023-09-06T10:20:48.889Z,4.00
2023-09-06T10:23:35.877Z,4.25
2023-09-06T10:26:04.651Z,4.35
2023-09-06T10:28:35.604Z,4.25
2023-09-06T10:31:12.646Z,3.92
2023-09-06T10:33:58.095Z,4.22
2023-09-06T10:36:31.770Z,4.28
2023-09-06T10:39:16.356Z,3.67
2023-09-06T10:42:25.850Z,4.03
2023-09-06T10:45:06.994Z,4.00
2023-09-06T10:47:38.777Z,4.05
2023-09-06T10:50:24.148Z,3.70
2023-09-06T10:53:05.940Z,3.75
2023-09-06T10:55:51.021Z,3.63
2023-09-06T10:58:38.260Z,3.97
2023-09-06T11:01:42.953Z,3.60
2023-09-06T11:04:32.629Z,3.75
2023-09-06T11:07:11.013Z,3.70
2023-09-06T11:09:55.239Z,3.47
2023-09-06T11:12:24.533Z,4.15
2023-09-06T11:14:56.077Z,3.17
2023-09-06T11:17:29.027Z,3.58
2023-09-06T11:20:15.996Z,3.13
2023-09-06T11:22:57.776Z,2.92
2023-09-06T11:25:29.642Z,3.30
2023-09-06T11:28:07.654Z,3.25
2023-09-06T11:30:38.636Z,2.92
2023-09-06T11:33:12.673Z,3.58
2023-09-06T11:36:04.853Z,3.65
2023-09-06T11:38:36.440Z,2.88
2023-09-06T11:41:14.829Z,3.10
2023-09-06T11:43:50.913Z,2.95
2023-09-06T11:46:29.500Z,3.50
2023-09-06T11:48:57.216Z,3.40
2023-09-06T11:51:30.945Z,3.45
2023-09-06T11:54:02.543Z,3.17
2023-09-06T11:56:37.767Z,2.85
2023-09-06T11:59:14.704Z,3.33
2023-09-06T12:01:46.274Z,3.20
2023-09-06T12:04:31.667Z,3.28
2023-09-06T12:07:04.929Z,3.08
2023-09-06T12:09:38.239Z,3.70
2023-09-06T12:12:26.245Z,3.75
2023-09-06T12:15:00.235Z,3.70
2023-09-06T12:17:30.733Z,3.60
2023-09-06T12:20:06.450Z,3.65
2023-09-06T12:22:45.483Z,3.38
2023-09-06T12:25:17.646Z,3.33
2023-09-06T12:27:56.116Z,3.30
2023-09-06T12:33:27.230Z,3.33
2023-09-06T12:36:02.803Z,3.20
2023-09-06T12:38:53.632Z,3.47
2023-09-06T12:41:29.903Z,3.38
2023-09-06T12:44:00.504Z,3.40
2023-09-06T12:46:29.150Z,3.30
2023-09-06T12:48:59.417Z,3.25
2023-09-06T12:51:28.729Z,3.30
2023-09-06T12:54:02.710Z,3.42
2023-09-06T12:56:33.233Z,3.20
2023-09-06T12:59:06.357Z,3.35
2023-09-06T13:01:38.993Z,3.30
2023-09-06T13:04:10.356Z,3.42
2023-09-06T13:06:47.578Z,3.33
2023-09-06T13:09:19.496Z,3.13
2023-09-06T13:11:49.433Z,2.97
2023-09-06T13:14:23.054Z,3.08
2023-09-06T13:16:52.878Z,3.33
2023-09-06T13:19:24.524Z,3.28
2023-09-06T13:21:54.509Z,3.10
2023-09-06T13:24:24.959Z,3.15
2023-09-06T13:26:57.937Z,3.55
2023-09-06T13:29:27.900Z,3.28
2023-09-06T13:31:59.311Z,3.50
2023-09-06T13:34:35.371Z,3.47
2023-09-06T13:37:08.637Z,3.28
2023-09-06T13:39:37.648Z,3.13
2023-09-06T13:42:08.444Z,3.25
2023-09-06T13:44:38.059Z,3.20
2023-09-06T13:47:08.814Z,3.28
2023-09-06T13:49:39.008Z,3.20
2023-09-06T13:52:14.069Z,3.22
2023-09-06T13:54:52.969Z,3.22
2023-09-06T13:57:26.398Z,3.10
2023-09-06T14:00:05.433Z,3.38
2023-09-06T14:02:37.737Z,3.10
2023-09-06T14:05:07.109Z,3.13
2023-09-06T14:07:39.061Z,3.17
2023-09-06T14:10:13.943Z,3.50
2023-09-06T14:12:43.127Z,2.97
2023-09-06T14:15:11.882Z,2.97
2023-09-06T14:17:40.666Z,3.25
2023-09-06T14:20:15.219Z,3.30
2023-09-06T14:22:44.638Z,3.30
2023-09-06T14:25:13.104Z,3.63
2023-09-06T14:27:43.649Z,3.15
2023-09-06T14:30:13.700Z,3.65
2023-09-06T14:32:42.935Z,3.28
2023-09-06T14:35:14.873Z,3.20
2023-09-06T14:37:43.774Z,3.20
2023-09-06T14:40:21.399Z,3.50
2023-09-06T14:42:50.822Z,3.33
2023-09-06T14:45:20.916Z,3.40
2023-09-06T14:47:48.157Z,3.38
2023-09-06T14:50:25.908Z,3.50
2023-09-06T14:52:57.384Z,3.40
2023-09-06T14:55:34.283Z,3.50
2023-09-06T14:58:05.938Z,3.90
2023-09-06T15:00:47.142Z,3.30
2023-09-06T15:03:15.729Z,3.17
2023-09-06T15:05:44.411Z,3.55
2023-09-06T15:08:13.880Z,3.42
2023-09-06T15:10:42.839Z,3.30
2023-09-06T15:13:14.539Z,3.20
2023-09-06T15:15:43.954Z,3.00
2023-09-06T15:18:13.903Z,3.35
2023-09-06T15:20:47.739Z,3.22
2023-09-06T15:23:23.828Z,3.35
2023-09-06T15:25:53.339Z,3.33
2023-09-06T15:28:22.874Z,2.95
2023-09-06T15:30:51.574Z,3.22
2023-09-06T15:33:22.258Z,3.38
2023-09-06T15:35:56.711Z,3.50
2023-09-06T15:38:26.135Z,3.20
2023-09-06T15:40:55.830Z,3.40
2023-09-06T15:43:26.460Z,3.63
2023-09-06T15:45:56.896Z,3.60
2023-09-06T15:48:28.070Z,3.28
2023-09-06T15:50:56.880Z,3.63
2023-09-06T15:53:26.736Z,3.50
2023-09-06T15:55:53.922Z,3.25
2023-09-06T15:58:24.136Z,3.28
2023-09-06T16:00:58.472Z,3.80
2023-09-06T16:03:28.682Z,3.13
2023-09-06T16:06:00.579Z,3.30
2023-09-06T16:08:28.079Z,3.63
2023-09-06T16:10:58.397Z,3.70
2023-09-06T16:13:28.076Z,3.35
2023-09-06T16:16:05.352Z,3.67
2023-09-06T16:18:37.903Z,3.28
2023-09-06T16:21:08.203Z,3.50
2023-09-06T16:23:38.771Z,3.40
2023-09-06T16:26:11.166Z,3.65
2023-09-06T16:28:42.648Z,3.22
2023-09-06T16:31:12.896Z,3.30
2023-09-06T16:33:52.062Z,3.38
2023-09-06T16:36:21.854Z,3.53
2023-09-06T16:38:50.306Z,3.17
2023-09-06T16:41:18.549Z,3.65
2023-09-06T16:43:55.166Z,3.40
2023-09-06T16:46:24.459Z,3.40
2023-09-06T16:48:55.430Z,3.25
2023-09-06T16:51:25.824Z,3.60
2023-09-06T16:53:54.541Z,3.40
2023-09-06T16:56:23.911Z,3.50
2023-09-06T16:58:52.971Z,3.58
2023-09-06T17:01:23.577Z,3.70
2023-09-06T17:03:53.040Z,3.45
2023-09-06T17:06:24.503Z,3.30
2023-09-06T17:08:56.704Z,3.70
2023-09-06T17:11:31.723Z,3.70
2023-09-06T17:14:08.219Z,3.63
2023-09-06T17:16:36.852Z,3.45
2023-09-06T17:19:12.608Z,3.92
2023-09-06T17:21:46.190Z,3.60
2023-09-06T17:24:17.374Z,3.90
2023-09-06T17:26:48.889Z,4.30
2023-09-06T17:29:20.129Z,5.00
2023-09-06T17:31:49.232Z,9.02
2023-09-06T17:34:21.101Z,11.32
2023-09-06T17:36:52.424Z,10.25
2023-09-06T17:39:21.500Z,7.88
2023-09-06T17:41:52.789Z,5.82
2023-09-06T17:44:24.735Z,6.18
2023-09-06T17:46:56.134Z,5.70
2023-09-06T17:49:27.832Z,5.28
2023-09-06T17:52:01.806Z,4.25
2023-09-06T17:54:56.301Z,4.60
2023-09-06T17:57:28.887Z,4.70
2023-09-06T18:00:01.359Z,4.25
2023-09-06T18:02:33.791Z,3.88
2023-09-06T18:05:12.375Z,4.07
2023-09-06T18:07:41.607Z,3.75
2023-09-06T18:10:13.760Z,3.80
2023-09-06T18:12:45.182Z,3.85
2023-09-06T18:15:16.939Z,3.45
2023-09-06T18:17:57.276Z,4.38
2023-09-06T18:20:33.862Z,4.00
2023-09-06T18:23:10.906Z,4.30
2023-09-06T18:25:41.836Z,3.70
2023-09-06T18:28:10.539Z,3.83
2023-09-06T18:30:47.209Z,4.20
2023-09-06T18:33:16.654Z,4.60
2023-09-06T18:35:46.455Z,4.20
2023-09-06T18:38:18.492Z,3.78
2023-09-06T18:40:54.469Z,3.75
2023-09-06T18:43:27.298Z,4.40
2023-09-06T18:45:58.391Z,4.68
2023-09-06T18:48:29.224Z,4.50
2023-09-06T18:51:01.540Z,4.22
2023-09-06T18:53:37.144Z,4.18
2023-09-06T18:56:12.716Z,4.22
2023-09-06T18:58:49.906Z,4.60
2023-09-06T19:01:19.288Z,4.00
2023-09-06T19:03:50.682Z,4.45
2023-09-06T19:06:21.180Z,4.47
2023-09-06T19:08:49.558Z,4.40
2023-09-06T19:11:17.740Z,4.22
2023-09-06T19:13:47.481Z,4.18
2023-09-06T19:16:17.122Z,4.60
2023-09-06T19:18:49.809Z,4.72
2023-09-06T19:21:19.345Z,4.53
2023-09-06T19:23:46.486Z,4.90
2023-09-06T19:26:17.387Z,4.88
2023-09-06T19:28:45.658Z,4.57
2023-09-06T19:31:17.794Z,4.55
2023-09-06T19:33:47.388Z,4.47
2023-09-06T19:36:21.049Z,4.13
2023-09-06T19:38:50.612Z,4.53
2023-09-06T19:41:18.946Z,4.60
2023-09-06T19:43:48.103Z,4.80
2023-09-06T19:46:20.051Z,4.65
2023-09-06T19:48:59.529Z,4.78
2023-09-06T19:51:34.946Z,4.32
2023-09-06T19:54:12.674Z,5.00
2023-09-06T19:56:50.854Z,4.50
2023-09-06T19:59:20.289Z,4.70
2023-09-06T20:01:50.758Z,4.43
2023-09-06T20:04:20.101Z,4.57
2023-09-06T20:06:49.364Z,4.68
2023-09-06T20:09:18.027Z,4.35
2023-09-06T20:11:48.746Z,4.28
2023-09-06T20:14:19.446Z,4.55
2023-09-06T20:16:48.980Z,4.53
2023-09-06T20:19:17.281Z,4.90
2023-09-06T20:21:48.171Z,4.60
2023-09-06T20:24:18.261Z,5.00
2023-09-06T20:26:46.052Z,4.50
2023-09-06T20:29:19.282Z,4.80
2023-09-06T20:31:49.542Z,4.60
2023-09-06T20:34:20.857Z,4.50
2023-09-06T20:36:49.976Z,4.70
2023-09-06T20:39:18.869Z,3.92
2023-09-06T20:41:47.538Z,4.25
2023-09-06T20:44:18.270Z,5.30
2023-09-06T20:46:48.157Z,4.43
2023-09-06T20:49:18.384Z,4.85
2023-09-06T20:51:49.452Z,4.70
2023-09-06T20:54:22.551Z,4.78
2023-09-06T20:56:51.234Z,4.47
2023-09-06T20:59:23.688Z,4.93
2023-09-06T21:01:53.326Z,4.32
2023-09-06T21:04:22.454Z,4.63
2023-09-06T21:07:04.490Z,4.35
2023-09-06T21:09:34.840Z,4.72
2023-09-06T21:12:05.820Z,4.70
2023-09-06T21:14:34.613Z,4.70
2023-09-06T21:17:04.293Z,4.82
2023-09-06T21:19:31.802Z,4.35
2023-09-06T21:22:09.314Z,4.80
2023-09-06T21:24:37.991Z,5.20
2023-09-06T21:27:06.402Z,4.53
2023-09-06T21:29:33.642Z,4.72
2023-09-06T21:32:04.681Z,4.32
2023-09-06T21:34:39.721Z,4.85
2023-09-06T21:37:07.532Z,4.40
2023-09-06T21:39:34.648Z,4.20
2023-09-06T21:42:08.103Z,4.57
2023-09-06T21:44:42.060Z,4.60
2023-09-06T21:47:18.087Z,4.53
2023-09-06T21:49:56.310Z,4.75
2023-09-06T21:52:24.369Z,4.65
2023-09-06T21:54:55.377Z,4.75
2023-09-06T21:57:25.353Z,4.60
2023-09-06T21:59:54.419Z,4.85
2023-09-06T22:02:31.629Z,4.78
2023-09-06T22:05:03.076Z,4.88
2023-09-06T22:07:32.821Z,5.35
2023-09-06T22:10:07.950Z,4.93
2023-09-06T22:12:37.813Z,4.72
2023-09-06T22:15:16.322Z,4.97
2023-09-06T22:17:45.933Z,4.95
2023-09-06T22:20:22.180Z,5.18
2023-09-06T22:22:53.544Z,4.90
2023-09-06T22:25:25.551Z,4.68
2023-09-06T22:27:53.529Z,5.22
2023-09-06T22:30:21.941Z,4.85
2023-09-06T22:32:51.470Z,4.93
2023-09-06T22:38:03.441Z,5.13
2023-09-06T22:40:37.138Z,5.10
2023-09-06T22:43:13.835Z,5.47
2023-09-06T22:45:45.853Z,5.35
2023-09-06T22:48:18.188Z,4.88
2023-09-06T22:50:47.268Z,4.72
2023-09-06T22:53:17.946Z,5.07
2023-09-06T22:55:55.575Z,5.43
2023-09-06T22:58:35.436Z,5.43
2023-09-06T23:01:09.418Z,5.18
2023-09-06T23:03:38.516Z,5.35
2023-09-06T23:06:13.524Z,5.15
2023-09-06T23:08:45.312Z,5.00
2023-09-06T23:11:19.537Z,5.60
2023-09-06T23:13:50.003Z,5.63
2023-09-06T23:16:21.092Z,5.70
2023-09-06T23:18:51.473Z,5.22
2023-09-06T23:21:23.404Z,5.20
2023-09-06T23:23:59.739Z,5.90
2023-09-06T23:26:32.791Z,5.43
2023-09-06T23:29:10.933Z,5.80
2023-09-06T23:31:58.650Z,4.90
2023-09-06T23:34:32.968Z,5.25
2023-09-06T23:37:04.768Z,6.00
2023-09-06T23:39:46.949Z,5.30
2023-09-06T23:42:21.720Z,5.28
2023-09-06T23:44:58.388Z,5.20
2023-09-06T23:47:28.595Z,5.30
2023-09-06T23:50:07.753Z,5.70
2023-09-06T23:52:36.778Z,5.60
2023-09-06T23:55:09.256Z,5.57
2023-09-06T23:57:38.829Z,5.40
